sensor_id;sensor_type;location;lat;lon;timestamp;pressure;altitude;pressure_sealevel;temperature;humidity
12973;BME280;6551;51.056;9.466;2023-02-28T00:00:37;98809.75;;;1.64;67.46
12973;BME280;6551;51.056;9.466;2023-02-28T00:03:05;98806.75;;;1.68;67.25
12973;BME280;6551;51.056;9.466;2023-02-28T00:05:31;98814.78;;;1.76;67.23
12973;BME280;6551;51.056;9.466;2023-02-28T00:07:56;98809.72;;;1.94;67.09
12973;BME280;6551;51.056;9.466;2023-02-28T00:10:26;98817.44;;;1.96;67.38
12973;BME280;6551;51.056;9.466;2023-02-28T00:12:58;98810.09;;;1.80;67.13
12973;BME280;6551;51.056;9.466;2023-02-28T00:15:24;98811.47;;;1.84;67.77
12973;BME280;6551;51.056;9.466;2023-02-28T00:17:51;98809.41;;;1.88;67.43
12973;BME280;6551;51.056;9.466;2023-02-28T00:20:18;98808.72;;;1.95;67.40
12973;BME280;6551;51.056;9.466;2023-02-28T00:22:51;98803.47;;;1.95;66.96
12973;BME280;6551;51.056;9.466;2023-02-28T00:25:22;98805.69;;;2.00;66.67
12973;BME280;6551;51.056;9.466;2023-02-28T00:27:50;98804.88;;;1.99;66.69
12973;BME280;6551;51.056;9.466;2023-02-28T00:30:19;98810.38;;;1.96;67.03
12973;BME280;6551;51.056;9.466;2023-02-28T00:32:45;98804.69;;;1.72;67.43
12973;BME280;6551;51.056;9.466;2023-02-28T00:35:12;98803.13;;;1.69;67.44
12973;BME280;6551;51.056;9.466;2023-02-28T00:37:39;98804.34;;;1.56;67.49
12973;BME280;6551;51.056;9.466;2023-02-28T00:40:06;98805.59;;;1.52;67.92
12973;BME280;6551;51.056;9.466;2023-02-28T00:42:35;98802.66;;;1.36;67.65
12973;BME280;6551;51.056;9.466;2023-02-28T00:45:01;98802.19;;;1.31;67.52
12973;BME280;6551;51.056;9.466;2023-02-28T00:47:30;98797.94;;;1.30;67.75
12973;BME280;6551;51.056;9.466;2023-02-28T00:49:56;98799.56;;;1.31;67.65
12973;BME280;6551;51.056;9.466;2023-02-28T00:52:22;98800.41;;;1.31;67.32
12973;BME280;6551;51.056;9.466;2023-02-28T00:54:47;98799.63;;;1.40;67.28
12973;BME280;6551;51.056;9.466;2023-02-28T00:57:13;98802.50;;;1.37;66.94
12973;BME280;6551;51.056;9.466;2023-02-28T00:59:40;98801.16;;;1.43;67.05
12973;BME280;6551;51.056;9.466;2023-02-28T01:02:06;98794.63;;;1.37;66.97
12973;BME280;6551;51.056;9.466;2023-02-28T01:04:31;98801.81;;;1.35;67.14
12973;BME280;6551;51.056;9.466;2023-02-28T01:07:00;98799.31;;;1.34;66.79
12973;BME280;6551;51.056;9.466;2023-02-28T01:09:25;98794.03;;;1.24;66.73
12973;BME280;6551;51.056;9.466;2023-02-28T01:11:51;98796.56;;;1.35;66.85
12973;BME280;6551;51.056;9.466;2023-02-28T01:14:18;98805.72;;;1.41;67.06
12973;BME280;6551;51.056;9.466;2023-02-28T01:16:44;98801.28;;;1.41;66.83
12973;BME280;6551;51.056;9.466;2023-02-28T01:19:10;98808.19;;;1.42;67.07
12973;BME280;6551;51.056;9.466;2023-02-28T01:21:39;98805.88;;;1.49;67.09
12973;BME280;6551;51.056;9.466;2023-02-28T01:24:05;98799.09;;;1.46;67.56
12973;BME280;6551;51.056;9.466;2023-02-28T01:26:31;98807.63;;;1.39;67.32
12973;BME280;6551;51.056;9.466;2023-02-28T01:28:58;98802.97;;;1.52;67.29
12973;BME280;6551;51.056;9.466;2023-02-28T01:31:24;98794.00;;;1.54;67.09
12973;BME280;6551;51.056;9.466;2023-02-28T01:33:50;98798.81;;;1.49;67.18
12973;BME280;6551;51.056;9.466;2023-02-28T01:36:22;98800.19;;;1.53;67.20
12973;BME280;6551;51.056;9.466;2023-02-28T01:38:49;98792.34;;;1.53;66.76
12973;BME280;6551;51.056;9.466;2023-02-28T01:41:25;98795.22;;;1.50;67.02
12973;BME280;6551;51.056;9.466;2023-02-28T01:46:51;98790.34;;;1.36;66.96
12973;BME280;6551;51.056;9.466;2023-02-28T01:49:18;98786.34;;;1.42;67.21
12973;BME280;6551;51.056;9.466;2023-02-28T01:51:50;98781.25;;;1.40;67.09
12973;BME280;6551;51.056;9.466;2023-02-28T01:54:22;98776.44;;;1.45;66.97
12973;BME280;6551;51.056;9.466;2023-02-28T01:57:06;98778.78;;;1.48;66.86
12973;BME280;6551;51.056;9.466;2023-02-28T02:00:08;98783.25;;;1.57;65.87
12973;BME280;6551;51.056;9.466;2023-02-28T02:02:36;98784.63;;;1.61;65.77
12973;BME280;6551;51.056;9.466;2023-02-28T02:05:14;98779.72;;;1.38;65.82
12973;BME280;6551;51.056;9.466;2023-02-28T02:07:44;98776.16;;;1.39;66.53
12973;BME280;6551;51.056;9.466;2023-02-28T02:10:25;98773.81;;;1.36;66.49
12973;BME280;6551;51.056;9.466;2023-02-28T02:13:25;98771.88;;;1.38;66.43
12973;BME280;6551;51.056;9.466;2023-02-28T02:22:35;98762.75;;;1.42;66.58
12973;BME280;6551;51.056;9.466;2023-02-28T02:25:45;98766.94;;;1.54;66.14
12973;BME280;6551;51.056;9.466;2023-02-28T02:37:29;98766.13;;;1.13;67.46
12973;BME280;6551;51.056;9.466;2023-02-28T02:40:35;98758.69;;;1.18;67.85
12973;BME280;6551;51.056;9.466;2023-02-28T02:43:18;98767.13;;;1.22;67.64
12973;BME280;6551;51.056;9.466;2023-02-28T02:46:04;98768.09;;;1.21;67.08
12973;BME280;6551;51.056;9.466;2023-02-28T02:48:34;98769.19;;;1.18;67.46
12973;BME280;6551;51.056;9.466;2023-02-28T02:51:07;98765.78;;;1.28;67.04
12973;BME280;6551;51.056;9.466;2023-02-28T02:56:32;98764.84;;;1.48;65.90
12973;BME280;6551;51.056;9.466;2023-02-28T02:59:09;98769.56;;;1.54;65.36
12973;BME280;6551;51.056;9.466;2023-02-28T03:01:37;98769.97;;;1.59;65.57
12973;BME280;6551;51.056;9.466;2023-02-28T03:04:13;98767.75;;;1.64;64.96
12973;BME280;6551;51.056;9.466;2023-02-28T03:06:41;98765.31;;;1.72;64.57
12973;BME280;6551;51.056;9.466;2023-02-28T03:09:07;98768.72;;;1.53;64.85
12973;BME280;6551;51.056;9.466;2023-02-28T03:11:35;98765.56;;;1.50;64.79
12973;BME280;6551;51.056;9.466;2023-02-28T03:19:55;98758.94;;;1.55;63.97
12973;BME280;6551;51.056;9.466;2023-02-28T03:26:31;98755.75;;;1.81;63.99
12973;BME280;6551;51.056;9.466;2023-02-28T03:31:05;98759.94;;;2.02;63.34
12973;BME280;6551;51.056;9.466;2023-02-28T03:33:45;98763.09;;;1.67;63.05
12973;BME280;6551;51.056;9.466;2023-02-28T03:36:17;98755.34;;;1.66;63.56
12973;BME280;6551;51.056;9.466;2023-02-28T03:39:16;98766.38;;;1.69;63.40
12973;BME280;6551;51.056;9.466;2023-02-28T03:42:05;98755.09;;;1.69;63.12
12973;BME280;6551;51.056;9.466;2023-02-28T03:44:42;98766.13;;;1.63;63.51
12973;BME280;6551;51.056;9.466;2023-02-28T03:47:25;98762.66;;;1.62;63.71
12973;BME280;6551;51.056;9.466;2023-02-28T03:50:21;98756.34;;;1.74;63.46
12973;BME280;6551;51.056;9.466;2023-02-28T03:52:59;98754.41;;;1.76;63.36
12973;BME280;6551;51.056;9.466;2023-02-28T03:55:38;98757.72;;;1.69;62.82
12973;BME280;6551;51.056;9.466;2023-02-28T03:58:17;98759.13;;;1.24;62.81
12973;BME280;6551;51.056;9.466;2023-02-28T04:00:57;98758.19;;;1.34;63.20
12973;BME280;6551;51.056;9.466;2023-02-28T04:03:35;98755.84;;;1.41;63.06
12973;BME280;6551;51.056;9.466;2023-02-28T04:06:02;98749.09;;;1.38;63.21
12973;BME280;6551;51.056;9.466;2023-02-28T04:08:29;98755.38;;;1.26;63.14
12973;BME280;6551;51.056;9.466;2023-02-28T04:11:32;98758.84;;;1.27;62.97
12973;BME280;6551;51.056;9.466;2023-02-28T04:13:54;98763.66;;;1.22;62.29
12973;BME280;6551;51.056;9.466;2023-02-28T04:16:20;98769.13;;;1.09;62.27
12973;BME280;6551;51.056;9.466;2023-02-28T04:18:45;98757.13;;;1.06;63.29
12973;BME280;6551;51.056;9.466;2023-02-28T04:21:12;98766.81;;;1.15;63.11
12973;BME280;6551;51.056;9.466;2023-02-28T04:23:37;98767.81;;;1.24;62.75
12973;BME280;6551;51.056;9.466;2023-02-28T04:26:07;98759.53;;;1.29;63.17
12973;BME280;6551;51.056;9.466;2023-02-28T04:28:33;98766.03;;;1.25;63.08
12973;BME280;6551;51.056;9.466;2023-02-28T04:31:03;98758.69;;;1.18;62.28
12973;BME280;6551;51.056;9.466;2023-02-28T04:33:31;98764.97;;;1.06;62.78
12973;BME280;6551;51.056;9.466;2023-02-28T04:36:07;98768.13;;;1.00;62.76
12973;BME280;6551;51.056;9.466;2023-02-28T04:38:38;98774.72;;;0.95;63.14
12973;BME280;6551;51.056;9.466;2023-02-28T04:41:06;98768.94;;;0.91;63.64
12973;BME280;6551;51.056;9.466;2023-02-28T04:43:32;98768.75;;;0.83;63.62
12973;BME280;6551;51.056;9.466;2023-02-28T04:46:03;98765.47;;;0.91;63.52
12973;BME280;6551;51.056;9.466;2023-02-28T04:48:32;98772.81;;;0.97;63.97
12973;BME280;6551;51.056;9.466;2023-02-28T04:53:32;98772.09;;;0.95;63.65
12973;BME280;6551;51.056;9.466;2023-02-28T04:55:58;98772.66;;;0.89;63.43
12973;BME280;6551;51.056;9.466;2023-02-28T04:58:24;98776.41;;;0.96;62.92
12973;BME280;6551;51.056;9.466;2023-02-28T05:00:52;98773.69;;;1.07;62.95
12973;BME280;6551;51.056;9.466;2023-02-28T05:03:18;98773.63;;;0.97;62.90
12973;BME280;6551;51.056;9.466;2023-02-28T05:05:46;98778.84;;;0.88;62.55
12973;BME280;6551;51.056;9.466;2023-02-28T05:08:12;98767.13;;;0.92;62.76
12973;BME280;6551;51.056;9.466;2023-02-28T05:10:39;98780.13;;;0.93;62.36
12973;BME280;6551;51.056;9.466;2023-02-28T05:13:08;98771.81;;;0.88;61.77
12973;BME280;6551;51.056;9.466;2023-02-28T05:15:36;98781.03;;;0.83;62.15
12973;BME280;6551;51.056;9.466;2023-02-28T05:18:02;98778.66;;;0.80;62.04
12973;BME280;6551;51.056;9.466;2023-02-28T05:20:30;98779.94;;;0.85;62.54
12973;BME280;6551;51.056;9.466;2023-02-28T05:22:57;98779.16;;;0.94;62.02
12973;BME280;6551;51.056;9.466;2023-02-28T05:25:23;98779.53;;;0.90;62.17
12973;BME280;6551;51.056;9.466;2023-02-28T05:27:50;98776.53;;;0.94;62.82
12973;BME280;6551;51.056;9.466;2023-02-28T05:30:18;98781.88;;;0.83;61.73
12973;BME280;6551;51.056;9.466;2023-02-28T05:32:50;98774.97;;;0.92;61.87
12973;BME280;6551;51.056;9.466;2023-02-28T05:35:18;98784.66;;;0.91;61.54
12973;BME280;6551;51.056;9.466;2023-02-28T05:37:45;98783.94;;;0.89;61.26
12973;BME280;6551;51.056;9.466;2023-02-28T05:40:11;98785.22;;;0.95;61.29
12973;BME280;6551;51.056;9.466;2023-02-28T05:42:38;98786.88;;;0.96;61.20
12973;BME280;6551;51.056;9.466;2023-02-28T05:45:06;98787.31;;;1.01;61.36
12973;BME280;6551;51.056;9.466;2023-02-28T05:47:32;98790.09;;;0.99;60.66
12973;BME280;6551;51.056;9.466;2023-02-28T05:49:58;98796.78;;;0.92;60.63
12973;BME280;6551;51.056;9.466;2023-02-28T05:52:23;98796.41;;;0.97;60.83
12973;BME280;6551;51.056;9.466;2023-02-28T05:54:49;98791.72;;;1.00;60.50
12973;BME280;6551;51.056;9.466;2023-02-28T05:57:15;98791.69;;;0.91;59.14
12973;BME280;6551;51.056;9.466;2023-02-28T05:59:41;98789.34;;;0.97;58.75
12973;BME280;6551;51.056;9.466;2023-02-28T06:02:13;98787.56;;;0.98;59.11
12973;BME280;6551;51.056;9.466;2023-02-28T06:04:39;98786.56;;;0.89;58.43
12973;BME280;6551;51.056;9.466;2023-02-28T06:07:11;98784.78;;;0.90;58.45
12973;BME280;6551;51.056;9.466;2023-02-28T06:09:38;98793.34;;;0.92;58.71
12973;BME280;6551;51.056;9.466;2023-02-28T06:12:06;98790.09;;;0.99;58.60
12973;BME280;6551;51.056;9.466;2023-02-28T06:14:33;98801.78;;;0.95;58.17
12973;BME280;6551;51.056;9.466;2023-02-28T06:17:00;98803.97;;;0.70;58.51
12973;BME280;6551;51.056;9.466;2023-02-28T06:19:27;98806.03;;;0.66;59.08
12973;BME280;6551;51.056;9.466;2023-02-28T06:21:55;98806.66;;;0.79;59.42
12973;BME280;6551;51.056;9.466;2023-02-28T06:24:25;98809.97;;;0.81;59.40
12973;BME280;6551;51.056;9.466;2023-02-28T06:26:53;98810.84;;;0.61;59.10
12973;BME280;6551;51.056;9.466;2023-02-28T06:29:19;98811.78;;;0.60;59.08
12973;BME280;6551;51.056;9.466;2023-02-28T06:31:45;98807.13;;;0.64;60.06
12973;BME280;6551;51.056;9.466;2023-02-28T06:34:12;98817.06;;;0.70;60.03
12973;BME280;6551;51.056;9.466;2023-02-28T06:36:40;98812.91;;;0.67;59.55
12973;BME280;6551;51.056;9.466;2023-02-28T06:39:09;98817.81;;;0.72;59.67
12973;BME280;6551;51.056;9.466;2023-02-28T06:41:36;98821.88;;;0.65;59.88
12973;BME280;6551;51.056;9.466;2023-02-28T06:44:12;98829.56;;;0.77;59.78
12973;BME280;6551;51.056;9.466;2023-02-28T06:46:43;98830.06;;;0.71;60.35
12973;BME280;6551;51.056;9.466;2023-02-28T06:49:10;98827.63;;;0.79;60.46
12973;BME280;6551;51.056;9.466;2023-02-28T06:51:40;98822.97;;;0.83;60.82
12973;BME280;6551;51.056;9.466;2023-02-28T06:54:07;98828.75;;;0.86;59.94
12973;BME280;6551;51.056;9.466;2023-02-28T06:56:36;98833.31;;;0.84;60.00
12973;BME280;6551;51.056;9.466;2023-02-28T06:59:03;98826.59;;;0.91;60.06
12973;BME280;6551;51.056;9.466;2023-02-28T07:01:30;98836.78;;;0.85;60.91
12973;BME280;6551;51.056;9.466;2023-02-28T07:03:58;98843.28;;;0.90;60.74
12973;BME280;6551;51.056;9.466;2023-02-28T07:06:24;98837.06;;;1.12;60.49
12973;BME280;6551;51.056;9.466;2023-02-28T07:08:53;98836.94;;;1.44;60.60
12973;BME280;6551;51.056;9.466;2023-02-28T07:11:20;98837.78;;;1.54;60.15
12973;BME280;6551;51.056;9.466;2023-02-28T07:13:49;98840.06;;;1.77;59.61
12973;BME280;6551;51.056;9.466;2023-02-28T07:16:16;98845.75;;;1.92;59.25
12973;BME280;6551;51.056;9.466;2023-02-28T07:18:42;98845.38;;;1.97;58.95
12973;BME280;6551;51.056;9.466;2023-02-28T07:21:10;98851.50;;;2.35;58.99
12973;BME280;6551;51.056;9.466;2023-02-28T07:23:38;98842.31;;;2.97;58.45
12973;BME280;6551;51.056;9.466;2023-02-28T07:26:05;98843.59;;;3.30;57.20
12973;BME280;6551;51.056;9.466;2023-02-28T07:28:32;98846.16;;;3.03;57.15
12973;BME280;6551;51.056;9.466;2023-02-28T07:31:06;98836.03;;;3.08;56.34
12973;BME280;6551;51.056;9.466;2023-02-28T07:33:33;98835.25;;;2.88;56.97
12973;BME280;6551;51.056;9.466;2023-02-28T07:36:04;98837.50;;;2.73;56.89
12973;BME280;6551;51.056;9.466;2023-02-28T07:38:48;98849.25;;;2.88;57.50
12973;BME280;6551;51.056;9.466;2023-02-28T07:41:21;98841.22;;;2.71;57.31
12973;BME280;6551;51.056;9.466;2023-02-28T07:43:48;98838.59;;;2.80;57.88
12973;BME280;6551;51.056;9.466;2023-02-28T07:46:16;98842.38;;;3.79;57.65
12973;BME280;6551;51.056;9.466;2023-02-28T07:48:45;98844.00;;;4.78;55.47
12973;BME280;6551;51.056;9.466;2023-02-28T07:51:10;98838.28;;;5.33;53.44
12973;BME280;6551;51.056;9.466;2023-02-28T07:53:37;98837.47;;;6.09;51.60
12973;BME280;6551;51.056;9.466;2023-02-28T07:56:04;98838.16;;;6.19;50.09
12973;BME280;6551;51.056;9.466;2023-02-28T07:58:30;98825.63;;;6.37;49.47
12973;BME280;6551;51.056;9.466;2023-02-28T08:01:06;98821.69;;;6.57;48.93
12973;BME280;6551;51.056;9.466;2023-02-28T08:03:32;98832.25;;;6.97;48.73
12973;BME280;6551;51.056;9.466;2023-02-28T08:05:58;98813.34;;;7.17;48.04
12973;BME280;6551;51.056;9.466;2023-02-28T08:08:26;98823.97;;;7.72;46.51
12973;BME280;6551;51.056;9.466;2023-02-28T08:10:54;98815.03;;;7.64;45.96
12973;BME280;6551;51.056;9.466;2023-02-28T08:13:20;98822.03;;;7.96;45.46
12973;BME280;6551;51.056;9.466;2023-02-28T08:15:46;98828.06;;;7.82;45.11
12973;BME280;6551;51.056;9.466;2023-02-28T08:18:14;98832.94;;;8.01;45.15
12973;BME280;6551;51.056;9.466;2023-02-28T08:20:39;98829.28;;;8.33;44.37
12973;BME280;6551;51.056;9.466;2023-02-28T08:23:06;98830.50;;;9.13;42.61
12973;BME280;6551;51.056;9.466;2023-02-28T08:25:32;98813.53;;;9.29;41.36
12973;BME280;6551;51.056;9.466;2023-02-28T08:27:58;98813.03;;;9.11;40.25
12973;BME280;6551;51.056;9.466;2023-02-28T08:30:23;98818.59;;;9.53;40.06
12973;BME280;6551;51.056;9.466;2023-02-28T08:32:50;98809.19;;;9.86;39.32
12973;BME280;6551;51.056;9.466;2023-02-28T08:35:17;98811.34;;;9.62;39.78
12973;BME280;6551;51.056;9.466;2023-02-28T08:37:43;98817.78;;;9.38;39.40
12973;BME280;6551;51.056;9.466;2023-02-28T08:40:10;98815.09;;;9.53;39.91
12973;BME280;6551;51.056;9.466;2023-02-28T08:42:38;98815.50;;;8.98;39.69
12973;BME280;6551;51.056;9.466;2023-02-28T08:45:06;98815.38;;;8.31;39.63
12973;BME280;6551;51.056;9.466;2023-02-28T08:47:32;98822.53;;;8.22;40.96
12973;BME280;6551;51.056;9.466;2023-02-28T08:49:58;98820.97;;;7.75;41.11
12973;BME280;6551;51.056;9.466;2023-02-28T08:52:23;98825.50;;;6.63;41.45
12973;BME280;6551;51.056;9.466;2023-02-28T08:54:50;98828.56;;;6.10;43.63
12973;BME280;6551;51.056;9.466;2023-02-28T08:57:18;98824.63;;;5.72;44.14
12973;BME280;6551;51.056;9.466;2023-02-28T08:59:43;98830.81;;;5.88;45.84
12973;BME280;6551;51.056;9.466;2023-02-28T09:02:13;98833.31;;;5.64;44.23
12973;BME280;6551;51.056;9.466;2023-02-28T09:04:41;98838.28;;;6.01;44.64
12973;BME280;6551;51.056;9.466;2023-02-28T09:07:07;98835.03;;;6.23;44.64
12973;BME280;6551;51.056;9.466;2023-02-28T09:09:37;98835.97;;;6.06;44.05
12973;BME280;6551;51.056;9.466;2023-02-28T09:12:26;98829.44;;;5.84;43.75
12973;BME280;6551;51.056;9.466;2023-02-28T09:14:53;98827.25;;;5.72;44.39
12973;BME280;6551;51.056;9.466;2023-02-28T09:17:19;98832.34;;;5.31;45.45
12973;BME280;6551;51.056;9.466;2023-02-28T09:19:48;98828.63;;;5.16;45.60
12973;BME280;6551;51.056;9.466;2023-02-28T09:22:15;98831.22;;;5.42;45.24
12973;BME280;6551;51.056;9.466;2023-02-28T09:24:42;98831.13;;;5.85;45.63
12973;BME280;6551;51.056;9.466;2023-02-28T09:27:07;98811.41;;;6.30;44.97
12973;BME280;6551;51.056;9.466;2023-02-28T09:29:34;98812.75;;;6.82;43.88
12973;BME280;6551;51.056;9.466;2023-02-28T09:32:03;98813.59;;;7.54;42.87
12973;BME280;6551;51.056;9.466;2023-02-28T09:34:31;98810.44;;;8.20;42.02
12973;BME280;6551;51.056;9.466;2023-02-28T09:36:57;98808.41;;;8.53;41.02
12973;BME280;6551;51.056;9.466;2023-02-28T09:39:24;98801.63;;;8.50;40.27
12973;BME280;6551;51.056;9.466;2023-02-28T09:41:52;98809.88;;;8.55;40.05
12973;BME280;6551;51.056;9.466;2023-02-28T09:44:37;98817.69;;;8.26;40.83
12973;BME280;6551;51.056;9.466;2023-02-28T09:47:31;98819.78;;;8.84;41.00
12973;BME280;6551;51.056;9.466;2023-02-28T09:50:12;98812.19;;;8.58;40.18
12973;BME280;6551;51.056;9.466;2023-02-28T09:52:42;98825.56;;;7.81;40.81
12973;BME280;6551;51.056;9.466;2023-02-28T09:55:39;98813.59;;;7.93;41.89
12973;BME280;6551;51.056;9.466;2023-02-28T09:58:45;98810.13;;;8.15;40.96
12973;BME280;6551;51.056;9.466;2023-02-28T10:02:46;98814.38;;;8.55;40.96
12973;BME280;6551;51.056;9.466;2023-02-28T10:04:46;98805.25;;;8.57;40.33
12973;BME280;6551;51.056;9.466;2023-02-28T10:07:50;98805.63;;;9.06;40.08
12973;BME280;6551;51.056;9.466;2023-02-28T10:11:06;98807.06;;;8.03;40.44
12973;BME280;6551;51.056;9.466;2023-02-28T10:16:11;98820.00;;;6.32;42.81
12973;BME280;6551;51.056;9.466;2023-02-28T10:18:58;98822.81;;;5.80;44.27
12973;BME280;6551;51.056;9.466;2023-02-28T10:22:17;98828.19;;;5.97;44.34
12973;BME280;6551;51.056;9.466;2023-02-28T10:24:42;98823.81;;;6.37;43.51
12973;BME280;6551;51.056;9.466;2023-02-28T10:27:23;98827.94;;;7.04;43.46
12973;BME280;6551;51.056;9.466;2023-02-28T10:29:57;98810.16;;;7.37;42.21
12973;BME280;6551;51.056;9.466;2023-02-28T10:35:16;98806.69;;;8.82;40.69
12973;BME280;6551;51.056;9.466;2023-02-28T10:37:47;98791.28;;;9.15;40.02
12973;BME280;6551;51.056;9.466;2023-02-28T10:43:01;98807.88;;;10.26;38.62
12973;BME280;6551;51.056;9.466;2023-02-28T10:45:36;98820.59;;;10.31;37.84
12973;BME280;6551;51.056;9.466;2023-02-28T10:50:53;98810.94;;;10.66;37.43
12973;BME280;6551;51.056;9.466;2023-02-28T10:56:21;98800.88;;;11.16;36.71
12973;BME280;6551;51.056;9.466;2023-02-28T10:59:03;98799.63;;;11.12;36.63
12973;BME280;6551;51.056;9.466;2023-02-28T11:01:42;98800.31;;;11.21;35.97
12973;BME280;6551;51.056;9.466;2023-02-28T11:07:19;98795.13;;;9.71;37.35
12973;BME280;6551;51.056;9.466;2023-02-28T11:09:50;98801.22;;;8.99;37.53
12973;BME280;6551;51.056;9.466;2023-02-28T11:12:39;98799.03;;;8.11;38.95
12973;BME280;6551;51.056;9.466;2023-02-28T11:15:24;98790.44;;;7.79;39.53
12973;BME280;6551;51.056;9.466;2023-02-28T11:18:01;98785.34;;;7.69;39.99
12973;BME280;6551;51.056;9.466;2023-02-28T11:20:33;98779.09;;;8.23;40.23
12973;BME280;6551;51.056;9.466;2023-02-28T11:23:03;98781.06;;;8.52;39.20
12973;BME280;6551;51.056;9.466;2023-02-28T11:25:37;98776.97;;;8.64;39.22
12973;BME280;6551;51.056;9.466;2023-02-28T11:28:33;98782.84;;;9.26;39.92
12973;BME280;6551;51.056;9.466;2023-02-28T11:31:15;98781.81;;;9.27;38.90
12973;BME280;6551;51.056;9.466;2023-02-28T11:33:53;98782.28;;;9.16;39.49
12973;BME280;6551;51.056;9.466;2023-02-28T11:36:31;98769.81;;;9.31;38.88
12973;BME280;6551;51.056;9.466;2023-02-28T11:39:09;98765.91;;;8.38;39.57
12973;BME280;6551;51.056;9.466;2023-02-28T11:44:47;98769.66;;;8.21;40.33
12973;BME280;6551;51.056;9.466;2023-02-28T11:47:48;98758.19;;;8.29;39.94
12973;BME280;6551;51.056;9.466;2023-02-28T11:56:46;98771.09;;;8.01;40.60
12973;BME280;6551;51.056;9.466;2023-02-28T12:00:06;98761.50;;;8.22;40.74
12973;BME280;6551;51.056;9.466;2023-02-28T12:03:12;98766.47;;;8.71;40.13
12973;BME280;6551;51.056;9.466;2023-02-28T12:05:49;98770.78;;;8.87;40.21
12973;BME280;6551;51.056;9.466;2023-02-28T12:11:36;98752.13;;;9.38;39.57
12973;BME280;6551;51.056;9.466;2023-02-28T12:20:58;98753.06;;;9.31;39.43
12973;BME280;6551;51.056;9.466;2023-02-28T12:23:53;98756.81;;;9.22;40.58
12973;BME280;6551;51.056;9.466;2023-02-28T12:26:41;98776.31;;;9.14;40.20
12973;BME280;6551;51.056;9.466;2023-02-28T12:29:32;98752.03;;;9.03;40.05
12973;BME280;6551;51.056;9.466;2023-02-28T12:32:35;98751.84;;;8.90;39.92
12973;BME280;6551;51.056;9.466;2023-02-28T12:35:31;98746.63;;;8.96;39.64
12973;BME280;6551;51.056;9.466;2023-02-28T12:38:22;98742.31;;;8.95;39.76
12973;BME280;6551;51.056;9.466;2023-02-28T12:41:00;98738.91;;;8.87;40.80
12973;BME280;6551;51.056;9.466;2023-02-28T12:43:39;98739.50;;;9.26;40.86
12973;BME280;6551;51.056;9.466;2023-02-28T12:46:22;98738.03;;;9.09;40.29
12973;BME280;6551;51.056;9.466;2023-02-28T12:48:56;98735.44;;;8.71;41.11
12973;BME280;6551;51.056;9.466;2023-02-28T12:51:25;98727.28;;;8.73;40.74
12973;BME280;6551;51.056;9.466;2023-02-28T12:59:51;98715.22;;;8.48;42.21
12973;BME280;6551;51.056;9.466;2023-02-28T13:08:59;98726.63;;;8.34;41.85
12973;BME280;6551;51.056;9.466;2023-02-28T13:11:33;98729.38;;;8.17;41.50
12973;BME280;6551;51.056;9.466;2023-02-28T13:14:14;98724.53;;;7.98;42.60
12973;BME280;6551;51.056;9.466;2023-02-28T13:19:32;98715.28;;;7.63;43.44
12973;BME280;6551;51.056;9.466;2023-02-28T13:22:01;98719.50;;;7.50;43.75
12973;BME280;6551;51.056;9.466;2023-02-28T13:24:53;98720.69;;;7.47;44.60
12973;BME280;6551;51.056;9.466;2023-02-28T13:27:40;98723.56;;;7.69;44.10
12973;BME280;6551;51.056;9.466;2023-02-28T13:38:56;98722.53;;;7.00;45.19
12973;BME280;6551;51.056;9.466;2023-02-28T13:44:21;98714.44;;;7.01;44.77
12973;BME280;6551;51.056;9.466;2023-02-28T14:06:07;98702.59;;;6.73;45.71
12973;BME280;6551;51.056;9.466;2023-02-28T14:08:34;98702.09;;;6.70;45.43
12973;BME280;6551;51.056;9.466;2023-02-28T14:11:20;98701.25;;;6.85;45.21
12973;BME280;6551;51.056;9.466;2023-02-28T14:13:50;98692.84;;;6.66;45.41
12973;BME280;6551;51.056;9.466;2023-02-28T14:16:25;98693.34;;;6.61;46.01
12973;BME280;6551;51.056;9.466;2023-02-28T14:19:03;98688.19;;;6.76;46.66
12973;BME280;6551;51.056;9.466;2023-02-28T14:21:38;98685.53;;;6.76;46.11
12973;BME280;6551;51.056;9.466;2023-02-28T14:30:49;98696.50;;;6.57;46.84
12973;BME280;6551;51.056;9.466;2023-02-28T14:34:05;98688.75;;;6.15;46.55
12973;BME280;6551;51.056;9.466;2023-02-28T14:36:44;98686.09;;;6.55;46.23
12973;BME280;6551;51.056;9.466;2023-02-28T14:39:23;98689.53;;;6.56;46.11
12973;BME280;6551;51.056;9.466;2023-02-28T14:41:50;98688.91;;;6.37;46.22
12973;BME280;6551;51.056;9.466;2023-02-28T14:44:23;98690.09;;;6.27;46.20
12973;BME280;6551;51.056;9.466;2023-02-28T14:46:52;98690.91;;;6.11;46.53
12973;BME280;6551;51.056;9.466;2023-02-28T14:49:32;98680.84;;;6.07;47.07
12973;BME280;6551;51.056;9.466;2023-02-28T14:52:28;98684.63;;;6.12;48.01
12973;BME280;6551;51.056;9.466;2023-02-28T14:55:05;98681.34;;;6.10;48.26
12973;BME280;6551;51.056;9.466;2023-02-28T14:57:51;98675.72;;;6.13;48.01
12973;BME280;6551;51.056;9.466;2023-02-28T15:02:56;98677.81;;;5.77;48.10
12973;BME280;6551;51.056;9.466;2023-02-28T15:05:33;98679.94;;;5.74;49.50
12973;BME280;6551;51.056;9.466;2023-02-28T15:08:17;98680.91;;;5.65;48.56
12973;BME280;6551;51.056;9.466;2023-02-28T15:11:07;98681.63;;;5.83;48.89
12973;BME280;6551;51.056;9.466;2023-02-28T15:13:48;98673.19;;;5.79;49.20
12973;BME280;6551;51.056;9.466;2023-02-28T15:16:36;98680.72;;;5.58;49.38
12973;BME280;6551;51.056;9.466;2023-02-28T15:19:24;98675.44;;;5.50;50.48
12973;BME280;6551;51.056;9.466;2023-02-28T15:22:02;98681.19;;;5.38;49.81
12973;BME280;6551;51.056;9.466;2023-02-28T15:24:49;98683.84;;;5.46;50.05
12973;BME280;6551;51.056;9.466;2023-02-28T15:27:25;98677.91;;;5.44;50.07
12973;BME280;6551;51.056;9.466;2023-02-28T15:30:00;98686.47;;;5.38;50.28
12973;BME280;6551;51.056;9.466;2023-02-28T15:32:39;98685.66;;;5.37;50.82
12973;BME280;6551;51.056;9.466;2023-02-28T15:35:37;98685.31;;;5.32;50.92
12973;BME280;6551;51.056;9.466;2023-02-28T15:38:25;98688.59;;;5.26;51.03
12973;BME280;6551;51.056;9.466;2023-02-28T15:40:55;98684.53;;;5.06;50.74
12973;BME280;6551;51.056;9.466;2023-02-28T15:43:47;98684.38;;;4.99;50.81
12973;BME280;6551;51.056;9.466;2023-02-28T15:46:15;98679.38;;;4.88;51.90
12973;BME280;6551;51.056;9.466;2023-02-28T15:48:56;98681.41;;;4.68;51.79
12973;BME280;6551;51.056;9.466;2023-02-28T15:51:29;98693.28;;;4.72;51.56
12973;BME280;6551;51.056;9.466;2023-02-28T15:54:02;98699.66;;;4.62;52.42
12973;BME280;6551;51.056;9.466;2023-02-28T15:56:34;98692.41;;;4.64;52.12
12973;BME280;6551;51.056;9.466;2023-02-28T15:59:06;98713.06;;;4.68;52.39
12973;BME280;6551;51.056;9.466;2023-02-28T16:01:35;98696.22;;;4.69;52.14
12973;BME280;6551;51.056;9.466;2023-02-28T16:04:06;98702.53;;;4.51;52.18